Time;durP1;ratioP1;P1;durP2;ratioP2;P2;SDS_P1;SDS_P2;PMS_P1;PMS_P2;Temp;Humidity;BMP_temperature;BMP_pressure;BME280_temperature;BME280_humidity;BME280_pressure;Samples;Min_cycle;Max_cycle;Signal;HPM_P1;HPM_P2
2022/03/04 00:01:09;;;;;;;;;;;3.10;67.30;;;;;;5050987;28;19996;-78
2022/03/04 00:03:34;;;;;;;;;;;3.10;67.30;;;;;;5050260;28;20396;-78
2022/03/04 00:06:00;;;;;;;;;;;3.00;67.60;;;;;;5051618;28;19913;-76
2022/03/04 00:08:25;;;;;;;;;;;3.00;67.80;;;;;;5050282;28;19908;-77
2022/03/04 00:10:51;;;;;;;;;;;3.00;67.40;;;;;;5051043;28;20042;-77
2022/03/04 00:13:16;;;;;;;;;;;2.90;67.70;;;;;;5051336;28;19978;-77
2022/03/04 00:15:42;;;;;;;;;;;2.90;67.80;;;;;;5048501;28;19920;-77
2022/03/04 00:18:07;;;;;;;;;;;2.90;68.20;;;;;;5050112;28;19917;-77
2022/03/04 00:20:32;;;;;;;;;;;2.90;67.70;;;;;;5049511;28;19917;-77
2022/03/04 00:22:58;;;;;;;;;;;2.80;67.80;;;;;;5050773;28;19924;-77
2022/03/04 00:25:24;;;;;;;;;;;2.90;68.00;;;;;;5050330;28;19916;-78
2022/03/04 00:27:49;;;;;;;;;;;2.80;68.20;;;;;;5050944;28;19909;-77
2022/03/04 00:30:15;;;;;;;;;;;2.80;68.70;;;;;;5049755;28;19909;-77
2022/03/04 00:32:40;;;;;;;;;;;2.80;68.70;;;;;;5048126;28;19923;-77
2022/03/04 00:35:06;;;;;;;;;;;2.70;69.40;;;;;;5044641;28;19908;-77
2022/03/04 00:37:32;;;;;;;;;;;2.60;69.10;;;;;;5049254;28;19919;-77
2022/03/04 00:39:57;;;;;;;;;;;2.60;69.60;;;;;;5049044;28;20339;-77
2022/03/04 00:42:23;;;;;;;;;;;2.60;69.70;;;;;;5046034;28;20028;-77
2022/03/04 00:44:48;;;;;;;;;;;2.50;70.20;;;;;;5048023;28;19917;-77
2022/03/04 00:47:14;;;;;;;;;;;2.50;70.20;;;;;;5050439;28;20245;-77
2022/03/04 00:49:39;;;;;;;;;;;2.50;70.50;;;;;;5049875;28;19920;-77
2022/03/04 00:52:05;;;;;;;;;;;2.40;70.30;;;;;;5052480;28;19920;-78
2022/03/04 00:54:30;;;;;;;;;;;2.30;70.50;;;;;;5050000;28;19919;-77
2022/03/04 00:56:56;;;;;;;;;;;2.30;70.40;;;;;;5049560;28;19913;-78
2022/03/04 00:59:21;;;;;;;;;;;2.30;70.70;;;;;;5049300;28;19931;-77
2022/03/04 01:01:47;;;;;;;;;;;2.30;70.80;;;;;;5050697;28;19909;-77
2022/03/04 01:04:12;;;;;;;;;;;2.40;70.40;;;;;;5050445;28;19970;-77
2022/03/04 01:06:39;;;;;;;;;;;2.40;70.30;;;;;;5042775;28;20016;-78
2022/03/04 01:09:04;;;;;;;;;;;2.50;70.50;;;;;;5029984;28;19917;-77
2022/03/04 01:11:30;;;;;;;;;;;2.40;70.00;;;;;;5048119;28;19917;-77
2022/03/04 01:13:56;;;;;;;;;;;2.30;70.30;;;;;;5049636;28;19913;-77
2022/03/04 01:16:22;;;;;;;;;;;2.20;71.00;;;;;;5049581;28;20011;-77
2022/03/04 01:18:47;;;;;;;;;;;2.10;71.30;;;;;;5049882;28;20363;-78
2022/03/04 01:21:13;;;;;;;;;;;2.10;71.90;;;;;;5050361;28;19974;-78
2022/03/04 01:23:38;;;;;;;;;;;2.00;72.10;;;;;;5042968;28;19969;-77
2022/03/04 01:26:04;;;;;;;;;;;2.10;71.20;;;;;;5050110;28;20373;-77
2022/03/04 01:28:29;;;;;;;;;;;2.00;71.40;;;;;;5046769;28;19981;-77
2022/03/04 01:30:55;;;;;;;;;;;2.00;71.20;;;;;;5047130;28;20407;-77
2022/03/04 01:33:20;;;;;;;;;;;2.00;71.00;;;;;;5057033;28;19908;-77
2022/03/04 01:35:46;;;;;;;;;;;2.00;71.20;;;;;;5054869;28;19925;-77
2022/03/04 01:38:12;;;;;;;;;;;1.90;71.80;;;;;;5056052;28;20007;-77
2022/03/04 01:40:37;;;;;;;;;;;1.80;72.20;;;;;;5053545;28;20605;-77
2022/03/04 01:43:03;;;;;;;;;;;1.80;72.00;;;;;;5050865;28;19996;-78
2022/03/04 01:45:29;;;;;;;;;;;1.70;72.60;;;;;;5052269;28;19976;-78
2022/03/04 01:47:54;;;;;;;;;;;1.70;72.50;;;;;;5055731;28;19934;-78
2022/03/04 01:50:20;;;;;;;;;;;1.60;72.80;;;;;;5056664;28;19913;-77
2022/03/04 01:52:45;;;;;;;;;;;1.50;73.00;;;;;;5055698;28;19913;-77
2022/03/04 01:55:11;;;;;;;;;;;1.50;73.10;;;;;;5056633;28;20219;-78
2022/03/04 01:57:36;;;;;;;;;;;1.60;73.10;;;;;;5054334;28;19919;-77
2022/03/04 02:00:07;;;;;;;;;;;1.60;72.90;;;;;;5043413;28;19913;-78
2022/03/04 02:02:32;;;;;;;;;;;1.60;72.90;;;;;;5040914;28;19913;-77
2022/03/04 02:04:58;;;;;;;;;;;1.60;73.20;;;;;;5055348;28;20393;-77
2022/03/04 02:07:23;;;;;;;;;;;1.60;73.40;;;;;;5056857;28;19917;-77
2022/03/04 02:09:49;;;;;;;;;;;1.60;73.10;;;;;;5057220;28;19912;-78
2022/03/04 02:12:14;;;;;;;;;;;1.60;73.20;;;;;;5058413;28;19913;-78
2022/03/04 02:14:39;;;;;;;;;;;1.60;73.40;;;;;;5054871;28;20019;-78
2022/03/04 02:17:05;;;;;;;;;;;1.60;73.10;;;;;;5056440;28;19913;-78
2022/03/04 02:19:30;;;;;;;;;;;1.60;73.10;;;;;;5055189;28;20620;-78
2022/03/04 02:21:57;;;;;;;;;;;1.60;73.20;;;;;;5056124;28;19917;-77
2022/03/04 02:24:24;;;;;;;;;;;1.60;73.70;;;;;;5054790;28;19963;-77
2022/03/04 02:26:50;;;;;;;;;;;1.60;73.40;;;;;;5047834;28;19912;-77
2022/03/04 02:29:15;;;;;;;;;;;1.60;73.40;;;;;;5055723;28;19962;-76
2022/03/04 02:31:41;;;;;;;;;;;1.60;73.50;;;;;;5054703;28;19912;-77
2022/03/04 02:34:06;;;;;;;;;;;1.50;73.80;;;;;;5043103;28;19921;-77
2022/03/04 02:36:32;;;;;;;;;;;1.40;73.50;;;;;;5056390;28;19956;-77
2022/03/04 02:38:57;;;;;;;;;;;1.30;74.20;;;;;;5054662;28;20608;-76
2022/03/04 02:41:23;;;;;;;;;;;1.40;74.00;;;;;;5053113;28;19928;-76
2022/03/04 02:43:48;;;;;;;;;;;1.30;74.00;;;;;;5051124;28;19917;-76
2022/03/04 02:46:14;;;;;;;;;;;1.30;74.10;;;;;;5048338;28;20223;-77
2022/03/04 02:48:40;;;;;;;;;;;1.20;74.10;;;;;;5049377;28;19925;-77
2022/03/04 02:51:05;;;;;;;;;;;1.20;74.60;;;;;;5052382;28;19956;-76
2022/03/04 02:53:31;;;;;;;;;;;1.20;74.80;;;;;;5051161;28;20015;-76
2022/03/04 02:55:57;;;;;;;;;;;1.30;75.00;;;;;;5052123;28;20377;-76
2022/03/04 02:58:23;;;;;;;;;;;1.20;74.80;;;;;;5051568;28;19917;-77
2022/03/04 03:00:48;;;;;;;;;;;1.20;75.00;;;;;;5051651;28;19939;-77
2022/03/04 03:03:14;;;;;;;;;;;1.20;75.10;;;;;;5049803;28;19920;-76
2022/03/04 03:05:39;;;;;;;;;;;1.30;75.10;;;;;;5034005;28;19920;-76
2022/03/04 03:08:05;;;;;;;;;;;1.20;75.30;;;;;;5037071;28;19917;-76
2022/03/04 03:10:32;;;;;;;;;;;1.30;75.50;;;;;;5050590;28;19913;-76
2022/03/04 03:12:58;;;;;;;;;;;1.20;75.90;;;;;;5049426;28;20391;-76
2022/03/04 03:15:23;;;;;;;;;;;1.20;75.90;;;;;;5051714;28;20012;-76
2022/03/04 03:17:49;;;;;;;;;;;1.20;76.00;;;;;;5049737;28;20301;-76
2022/03/04 03:20:15;;;;;;;;;;;1.20;76.20;;;;;;5049625;28;20309;-76
2022/03/04 03:22:40;;;;;;;;;;;1.20;75.90;;;;;;5049400;28;19920;-77
2022/03/04 03:25:06;;;;;;;;;;;1.20;76.50;;;;;;5050299;28;20015;-77
2022/03/04 03:27:31;;;;;;;;;;;1.10;76.30;;;;;;5051405;28;19909;-77
2022/03/04 03:29:57;;;;;;;;;;;1.10;76.40;;;;;;5049072;28;19909;-77
2022/03/04 03:32:22;;;;;;;;;;;1.10;76.50;;;;;;5051273;28;19919;-78
2022/03/04 03:34:48;;;;;;;;;;;1.10;76.60;;;;;;5050711;28;19916;-77
2022/03/04 03:37:13;;;;;;;;;;;1.10;76.80;;;;;;5033267;28;19920;-79
2022/03/04 03:39:39;;;;;;;;;;;1.10;77.10;;;;;;5047270;28;19923;-77
2022/03/04 03:42:05;;;;;;;;;;;1.10;77.00;;;;;;5051897;28;19967;-77
2022/03/04 03:44:30;;;;;;;;;;;1.00;77.40;;;;;;5050038;28;20019;-77
2022/03/04 03:46:56;;;;;;;;;;;1.10;77.20;;;;;;5050621;28;19959;-77
2022/03/04 03:49:21;;;;;;;;;;;1.20;76.90;;;;;;5050557;28;19917;-77
2022/03/04 03:51:47;;;;;;;;;;;1.20;76.80;;;;;;5054059;28;19913;-77
2022/03/04 03:54:13;;;;;;;;;;;1.20;76.80;;;;;;5043473;28;19917;-78
2022/03/04 03:56:38;;;;;;;;;;;1.20;76.70;;;;;;5050246;28;20013;-77
2022/03/04 03:59:04;;;;;;;;;;;1.20;77.00;;;;;;5049038;28;20373;-78
2022/03/04 04:01:29;;;;;;;;;;;1.20;77.20;;;;;;5051043;28;19978;-77
2022/03/04 04:03:55;;;;;;;;;;;1.10;77.30;;;;;;5046357;28;19924;-77
2022/03/04 04:06:20;;;;;;;;;;;1.20;77.00;;;;;;5047915;28;19909;-77
2022/03/04 04:08:45;;;;;;;;;;;1.20;77.00;;;;;;5050240;28;19917;-77
2022/03/04 04:11:12;;;;;;;;;;;1.10;77.00;;;;;;5047755;28;19923;-77
2022/03/04 04:13:37;;;;;;;;;;;1.00;77.40;;;;;;5048338;28;20388;-77
2022/03/04 04:16:03;;;;;;;;;;;0.90;77.70;;;;;;5050200;28;19959;-76
2022/03/04 04:18:28;;;;;;;;;;;1.00;77.40;;;;;;5051179;28;20331;-77
2022/03/04 04:20:54;;;;;;;;;;;1.00;77.50;;;;;;5049753;28;19917;-78
2022/03/04 04:23:19;;;;;;;;;;;0.90;78.00;;;;;;5051295;28;19972;-78
2022/03/04 04:25:45;;;;;;;;;;;1.00;77.90;;;;;;5067124;28;19913;-78
2022/03/04 04:28:10;;;;;;;;;;;0.90;77.90;;;;;;5050563;28;19909;-78
2022/03/04 04:30:35;;;;;;;;;;;0.90;77.90;;;;;;5050406;28;20364;-78
2022/03/04 04:33:01;;;;;;;;;;;1.00;77.80;;;;;;5052152;28;19925;-78
2022/03/04 04:35:27;;;;;;;;;;;1.00;77.90;;;;;;5050311;28;19971;-78
2022/03/04 04:37:52;;;;;;;;;;;0.80;77.90;;;;;;5051053;28;19920;-78
2022/03/04 04:40:18;;;;;;;;;;;0.80;78.30;;;;;;5049498;28;19975;-78
2022/03/04 04:42:44;;;;;;;;;;;0.80;78.40;;;;;;5050509;28;20003;-78
2022/03/04 04:45:09;;;;;;;;;;;0.80;78.40;;;;;;5049979;28;19996;-78
2022/03/04 04:47:35;;;;;;;;;;;0.90;77.90;;;;;;5049959;28;19916;-79
2022/03/04 04:50:00;;;;;;;;;;;0.90;77.80;;;;;;5050357;28;19921;-77
2022/03/04 04:52:26;;;;;;;;;;;0.80;78.20;;;;;;5050849;28;19970;-77
2022/03/04 04:54:52;;;;;;;;;;;0.80;78.40;;;;;;5048694;28;19954;-78
2022/03/04 04:57:17;;;;;;;;;;;0.80;78.50;;;;;;5050276;28;19913;-77
2022/03/04 04:59:43;;;;;;;;;;;0.80;78.50;;;;;;5049126;28;19909;-78
2022/03/04 05:02:08;;;;;;;;;;;0.80;78.20;;;;;;5034359;28;19913;-78
2022/03/04 05:04:37;;;;;;;;;;;0.70;78.60;;;;;;5050365;22;20075;-81
2022/03/04 05:07:07;;;;;;;;;;;0.70;78.70;;;;;;5034879;28;19913;-82
2022/03/04 05:09:32;;;;;;;;;;;0.80;78.80;;;;;;5047642;28;20004;-82
2022/03/04 05:11:58;;;;;;;;;;;0.80;78.70;;;;;;5056856;28;19956;-82
2022/03/04 05:14:32;;;;;;;;;;;0.80;78.50;;;;;;5033447;28;19913;-82
2022/03/04 05:17:00;;;;;;;;;;;0.80;78.40;;;;;;5031927;28;19928;-81
2022/03/04 05:19:29;;;;;;;;;;;0.60;78.60;;;;;;5030386;28;19913;-82
2022/03/04 05:22:02;;;;;;;;;;;0.70;78.60;;;;;;5031283;28;19913;-83
2022/03/04 05:24:28;;;;;;;;;;;0.80;78.30;;;;;;5033897;28;20339;-82
2022/03/04 05:26:53;;;;;;;;;;;0.70;78.30;;;;;;5031184;28;19913;-83
2022/03/04 05:29:21;;;;;;;;;;;0.80;78.50;;;;;;5013865;28;19913;-81
2022/03/04 05:32:06;;;;;;;;;;;;;;;;;;;;;
2022/03/04 05:34:46;;;;;;;;;;;0.60;78.50;;;;;;5017577;28;20403;-82
2022/03/04 05:37:24;;;;;;;;;;;;;;;;;;;;;
2022/03/04 05:39:52;;;;;;;;;;;0.60;79.00;;;;;;5034312;28;19988;-82
2022/03/04 05:42:21;;;;;;;;;;;0.50;79.30;;;;;;5032428;28;19964;-82
2022/03/04 05:44:57;;;;;;;;;;;0.50;79.30;;;;;;5031875;28;19921;-82
2022/03/04 05:47:31;;;;;;;;;;;0.50;79.40;;;;;;5029054;28;19959;-81
2022/03/04 05:50:03;;;;;;;;;;;0.50;79.20;;;;;;5026840;28;19988;-82
2022/03/04 05:52:28;;;;;;;;;;;0.50;79.10;;;;;;5031806;28;20023;-82
2022/03/04 05:54:56;;;;;;;;;;;0.40;79.50;;;;;;5043826;28;19989;-82
2022/03/04 05:57:24;;;;;;;;;;;0.40;79.60;;;;;;5039969;28;19964;-81
2022/03/04 06:02:55;;;;;;;;;;;0.30;79.80;;;;;;5015708;28;19918;-81
2022/03/04 06:05:31;;;;;;;;;;;0.30;79.80;;;;;;5023256;28;19921;-83
2022/03/04 06:07:57;;;;;;;;;;;0.50;79.80;;;;;;5040734;28;19917;-80
2022/03/04 06:10:23;;;;;;;;;;;0.40;79.80;;;;;;5023131;28;20396;-81
2022/03/04 06:12:48;;;;;;;;;;;0.30;79.80;;;;;;5019933;28;19901;-81
2022/03/04 06:15:14;;;;;;;;;;;0.30;79.90;;;;;;5039125;28;19906;-79
2022/03/04 06:17:50;;;;;;;;;;;0.30;80.20;;;;;;5051716;28;19948;-82
2022/03/04 06:20:16;;;;;;;;;;;0.30;80.50;;;;;;5055176;28;19984;-81
2022/03/04 06:22:42;;;;;;;;;;;0.30;80.10;;;;;;5023475;28;19921;-81
2022/03/04 06:25:09;;;;;;;;;;;0.40;80.00;;;;;;5024570;28;19998;-80
2022/03/04 06:27:34;;;;;;;;;;;0.40;80.00;;;;;;5034118;28;19913;-80
2022/03/04 06:30:00;;;;;;;;;;;0.40;80.10;;;;;;5031025;28;20457;-82
2022/03/04 06:32:25;;;;;;;;;;;0.30;80.10;;;;;;5015167;28;19937;-81
2022/03/04 06:34:51;;;;;;;;;;;0.30;80.10;;;;;;5032878;28;20011;-80
2022/03/04 06:37:16;;;;;;;;;;;0.40;80.20;;;;;;5051285;28;19909;-80
2022/03/04 06:39:42;;;;;;;;;;;0.40;80.30;;;;;;5045278;28;19916;-82
2022/03/04 06:42:07;;;;;;;;;;;0.40;80.50;;;;;;5029597;28;19924;-80
2022/03/04 06:44:33;;;;;;;;;;;0.40;80.40;;;;;;5034410;28;19992;-82
2022/03/04 06:46:58;;;;;;;;;;;0.40;80.20;;;;;;5028595;28;20529;-83
2022/03/04 06:49:24;;;;;;;;;;;0.50;80.40;;;;;;5042975;28;19913;-82
2022/03/04 06:51:50;;;;;;;;;;;0.40;80.40;;;;;;5040899;28;20302;-82
2022/03/04 06:54:15;;;;;;;;;;;0.40;80.50;;;;;;5035713;28;20012;-82
2022/03/04 06:56:41;;;;;;;;;;;0.40;80.20;;;;;;5033115;28;19917;-82
2022/03/04 06:59:06;;;;;;;;;;;0.40;80.30;;;;;;5035757;28;19909;-82
2022/03/04 07:01:32;;;;;;;;;;;0.40;80.50;;;;;;5032604;28;19913;-82
2022/03/04 07:03:57;;;;;;;;;;;0.50;80.40;;;;;;5027701;28;20446;-82
2022/03/04 07:06:24;;;;;;;;;;;0.50;80.40;;;;;;5013183;28;19917;-82
2022/03/04 07:08:49;;;;;;;;;;;0.50;80.30;;;;;;5022334;28;19909;-82
2022/03/04 07:11:15;;;;;;;;;;;0.50;80.50;;;;;;5022100;28;20622;-81
2022/03/04 07:13:40;;;;;;;;;;;0.60;80.30;;;;;;5035424;28;20636;-82
2022/03/04 07:16:06;;;;;;;;;;;0.80;80.40;;;;;;5048444;28;19901;-81
2022/03/04 07:18:31;;;;;;;;;;;0.60;80.50;;;;;;5059329;28;19995;-80
2022/03/04 07:20:57;;;;;;;;;;;0.50;80.70;;;;;;5055241;28;19909;-80
2022/03/04 07:23:23;;;;;;;;;;;0.40;81.10;;;;;;5040220;28;19936;-82
2022/03/04 07:25:49;;;;;;;;;;;0.30;81.60;;;;;;5054099;28;19953;-81
2022/03/04 07:28:14;;;;;;;;;;;0.20;81.50;;;;;;5054974;28;19905;-82
2022/03/04 07:30:40;;;;;;;;;;;0.30;81.70;;;;;;5035501;28;19924;-83
2022/03/04 07:33:06;;;;;;;;;;;0.30;81.90;;;;;;5025496;28;19925;-83
2022/03/04 07:35:31;;;;;;;;;;;0.30;82.30;;;;;;5029562;28;19925;-80
2022/03/04 07:37:57;;;;;;;;;;;0.20;82.50;;;;;;5031912;28;19923;-81
2022/03/04 07:40:22;;;;;;;;;;;0.30;82.80;;;;;;5034210;28;19913;-81
2022/03/04 07:42:48;;;;;;;;;;;0.30;82.70;;;;;;5031339;28;19913;-81
2022/03/04 07:45:16;;;;;;;;;;;0.30;82.80;;;;;;5030921;28;19917;-82
2022/03/04 07:47:42;;;;;;;;;;;0.40;82.80;;;;;;5024975;28;20324;-81
2022/03/04 07:50:09;;;;;;;;;;;0.40;82.70;;;;;;5023799;28;19924;-81
2022/03/04 07:52:35;;;;;;;;;;;0.40;82.50;;;;;;5019745;28;19920;-81
2022/03/04 07:55:01;;;;;;;;;;;0.50;82.70;;;;;;5031841;28;20351;-82
2022/03/04 07:57:27;;;;;;;;;;;0.50;82.50;;;;;;5036926;28;19913;-82
2022/03/04 07:59:52;;;;;;;;;;;0.60;82.30;;;;;;5022886;28;19943;-82
2022/03/04 08:02:19;;;;;;;;;;;0.60;82.00;;;;;;5038019;28;19917;-82
2022/03/04 08:04:45;;;;;;;;;;;0.60;82.30;;;;;;5039710;28;20016;-82
2022/03/04 08:07:10;;;;;;;;;;;0.70;82.10;;;;;;5032237;28;19959;-81
2022/03/04 08:09:36;;;;;;;;;;;0.80;81.90;;;;;;5024071;28;19913;-81
2022/03/04 08:12:01;;;;;;;;;;;0.80;82.10;;;;;;5044384;28;19941;-82
2022/03/04 08:14:28;;;;;;;;;;;0.90;81.70;;;;;;5030695;28;19913;-83
2022/03/04 08:16:53;;;;;;;;;;;1.00;81.50;;;;;;5027232;28;20347;-82
2022/03/04 08:19:19;;;;;;;;;;;1.10;81.00;;;;;;5049133;28;20070;-82
2022/03/04 08:21:45;;;;;;;;;;;1.10;80.80;;;;;;5029219;28;19982;-83
2022/03/04 08:24:11;;;;;;;;;;;1.20;80.30;;;;;;5029105;28;19960;-82
2022/03/04 08:26:38;;;;;;;;;;;1.20;80.00;;;;;;5026900;28;19909;-83
2022/03/04 08:29:05;;;;;;;;;;;1.20;80.20;;;;;;5025734;28;19948;-84
2022/03/04 08:31:30;;;;;;;;;;;1.30;80.00;;;;;;5036570;28;19953;-84
2022/03/04 08:33:56;;;;;;;;;;;1.30;79.70;;;;;;5021725;28;19920;-84
2022/03/04 08:36:21;;;;;;;;;;;1.40;80.10;;;;;;5036698;28;19902;-82
2022/03/04 08:38:47;;;;;;;;;;;1.40;79.30;;;;;;5016036;28;19917;-83
2022/03/04 08:41:13;;;;;;;;;;;1.50;78.90;;;;;;5024610;28;19913;-83
2022/03/04 08:43:46;;;;;;;;;;;1.50;79.00;;;;;;5037085;28;19921;-81
2022/03/04 08:46:13;;;;;;;;;;;1.60;78.60;;;;;;5025428;28;20467;-86
2022/03/04 08:48:39;;;;;;;;;;;1.60;78.80;;;;;;5027722;28;19909;-85
2022/03/04 08:51:05;;;;;;;;;;;1.70;79.00;;;;;;5029481;28;19978;-82
2022/03/04 08:53:30;;;;;;;;;;;1.70;78.60;;;;;;5027927;28;19913;-82
2022/03/04 08:55:56;;;;;;;;;;;1.80;78.20;;;;;;5019561;28;19960;-82
2022/03/04 08:58:21;;;;;;;;;;;2.00;78.20;;;;;;5016458;28;20560;-82
2022/03/04 09:00:47;;;;;;;;;;;2.00;77.20;;;;;;5028431;28;19967;-81
2022/03/04 09:03:12;;;;;;;;;;;2.00;77.20;;;;;;5020696;28;19917;-83
2022/03/04 09:05:38;;;;;;;;;;;2.10;76.40;;;;;;5020290;28;19924;-82
2022/03/04 09:08:03;;;;;;;;;;;2.10;76.40;;;;;;5035121;28;20187;-83
2022/03/04 09:10:29;;;;;;;;;;;2.10;75.80;;;;;;5025818;28;19913;-86
2022/03/04 09:12:54;;;;;;;;;;;2.20;75.50;;;;;;5020090;28;19953;-84
2022/03/04 09:15:20;;;;;;;;;;;2.30;75.20;;;;;;5029702;28;20422;-86
2022/03/04 09:17:45;;;;;;;;;;;2.40;75.50;;;;;;5040236;28;20372;-85
2022/03/04 09:20:14;;;;;;;;;;;2.50;75.60;;;;;;5032300;28;19920;-84
2022/03/04 09:22:40;;;;;;;;;;;2.60;74.90;;;;;;5029038;28;19913;-85
2022/03/04 09:25:05;;;;;;;;;;;2.60;74.90;;;;;;5018655;28;19917;-86
2022/03/04 09:27:31;;;;;;;;;;;2.80;75.50;;;;;;5034569;28;19913;-86
2022/03/04 09:29:56;;;;;;;;;;;2.90;74.30;;;;;;5053237;28;19920;-85
2022/03/04 09:32:23;;;;;;;;;;;2.90;73.70;;;;;;5055895;28;19909;-85
2022/03/04 09:34:48;;;;;;;;;;;3.00;73.00;;;;;;5042005;28;19965;-84
2022/03/04 09:37:14;;;;;;;;;;;3.10;73.40;;;;;;5045744;28;19901;-86
2022/03/04 09:39:39;;;;;;;;;;;3.20;73.50;;;;;;5050912;28;19912;-85
2022/03/04 09:42:06;;;;;;;;;;;3.40;72.80;;;;;;5042512;28;19920;-86
2022/03/04 09:44:31;;;;;;;;;;;3.40;72.00;;;;;;5033054;28;19917;-79
2022/03/04 09:46:58;;;;;;;;;;;3.50;72.20;;;;;;5051029;28;20113;-83
2022/03/04 09:49:26;;;;;;;;;;;3.60;71.40;;;;;;5038627;28;20003;-86
2022/03/04 09:51:52;;;;;;;;;;;3.60;71.50;;;;;;5037197;28;19909;-83
2022/03/04 09:54:25;;;;;;;;;;;3.60;70.40;;;;;;5048897;28;19913;-83
2022/03/04 09:56:51;;;;;;;;;;;3.70;70.30;;;;;;5035210;28;19921;-82
2022/03/04 09:59:16;;;;;;;;;;;3.80;70.50;;;;;;5028464;28;19913;-81
2022/03/04 10:01:42;;;;;;;;;;;3.90;69.10;;;;;;5032221;28;19957;-81
2022/03/04 10:04:07;;;;;;;;;;;3.90;68.60;;;;;;5029785;28;19952;-80
2022/03/04 10:06:36;;;;;;;;;;;3.90;68.60;;;;;;5067882;28;19955;-81
2022/03/04 10:09:01;;;;;;;;;;;4.10;68.30;;;;;;5042443;28;19937;-82
2022/03/04 10:11:27;;;;;;;;;;;4.10;66.80;;;;;;5042454;28;19913;-82
2022/03/04 10:13:54;;;;;;;;;;;4.20;67.00;;;;;;5030259;28;19936;-80
2022/03/04 10:16:25;;;;;;;;;;;4.30;66.30;;;;;;5048492;28;19917;-80
2022/03/04 10:19:10;;;;;;;;;;;4.30;66.50;;;;;;5052603;28;19936;-80
2022/03/04 10:21:44;;;;;;;;;;;4.50;65.80;;;;;;5047881;28;19924;-81
2022/03/04 10:24:10;;;;;;;;;;;4.60;64.50;;;;;;5052809;28;19917;-79
2022/03/04 10:26:35;;;;;;;;;;;4.60;64.30;;;;;;5042830;28;19913;-83
2022/03/04 10:29:16;;;;;;;;;;;4.80;63.30;;;;;;5033607;28;19913;-82
2022/03/04 10:32:01;;;;;;;;;;;4.90;62.80;;;;;;5019701;28;19914;-82
2022/03/04 10:34:26;;;;;;;;;;;5.00;62.80;;;;;;5027794;28;19955;-82
2022/03/04 10:36:53;;;;;;;;;;;5.00;62.80;;;;;;5029368;28;19955;-84
2022/03/04 10:39:18;;;;;;;;;;;5.10;63.10;;;;;;5046012;28;20423;-82
2022/03/04 10:41:49;;;;;;;;;;;5.30;63.50;;;;;;5037619;28;20024;-82
2022/03/04 10:44:24;;;;;;;;;;;5.40;62.90;;;;;;5019421;28;19921;-82
2022/03/04 10:46:56;;;;;;;;;;;5.50;61.70;;;;;;5036635;28;19909;-83
2022/03/04 10:49:26;;;;;;;;;;;5.60;60.90;;;;;;5030691;28;19987;-83
2022/03/04 10:52:04;;;;;;;;;;;5.60;60.60;;;;;;5027176;28;19956;-83
2022/03/04 10:54:29;;;;;;;;;;;5.60;60.90;;;;;;5033996;28;19913;-83
2022/03/04 10:56:55;;;;;;;;;;;5.70;60.40;;;;;;5034066;28;19921;-84
2022/03/04 10:59:24;;;;;;;;;;;5.70;60.00;;;;;;5054337;28;19924;-85
2022/03/04 11:01:50;;;;;;;;;;;5.80;58.50;;;;;;5044153;28;19913;-83
2022/03/04 11:04:17;;;;;;;;;;;5.80;59.30;;;;;;5049192;28;19945;-84
2022/03/04 11:06:45;;;;;;;;;;;5.90;58.00;;;;;;5039397;28;19976;-83
2022/03/04 11:09:14;;;;;;;;;;;6.00;59.10;;;;;;5025635;28;19929;-82
2022/03/04 11:11:44;;;;;;;;;;;6.10;59.60;;;;;;5041450;28;19933;-83
2022/03/04 11:14:10;;;;;;;;;;;6.20;58.10;;;;;;5041188;28;20023;-85
2022/03/04 11:16:36;;;;;;;;;;;6.20;57.80;;;;;;5027791;28;19939;-83
2022/03/04 11:19:02;;;;;;;;;;;6.40;58.40;;;;;;5028779;28;19925;-82
2022/03/04 11:21:28;;;;;;;;;;;6.50;57.00;;;;;;5022089;28;19936;-83
2022/03/04 11:23:54;;;;;;;;;;;6.40;57.80;;;;;;5030343;28;19971;-82
2022/03/04 11:26:20;;;;;;;;;;;6.40;56.80;;;;;;5046719;28;19913;-84
2022/03/04 11:28:50;;;;;;;;;;;6.50;58.80;;;;;;5028157;28;20012;-85
2022/03/04 11:31:23;;;;;;;;;;;6.60;57.10;;;;;;5027246;28;19913;-85
2022/03/04 11:33:49;;;;;;;;;;;6.60;57.50;;;;;;5031654;28;19913;-85
2022/03/04 11:36:14;;;;;;;;;;;6.60;57.30;;;;;;5025966;28;19974;-86
2022/03/04 11:38:47;;;;;;;;;;;6.60;56.90;;;;;;5027311;28;20015;-86
2022/03/04 11:41:34;;;;;;;;;;;6.70;57.10;;;;;;5049978;28;19913;-86
2022/03/04 11:44:11;;;;;;;;;;;6.70;57.50;;;;;;5034582;28;19905;-85
2022/03/04 11:46:42;;;;;;;;;;;6.70;55.70;;;;;;5035547;28;19917;-86
2022/03/04 11:49:27;;;;;;;;;;;6.80;54.70;;;;;;5057160;28;19917;-85
2022/03/04 11:52:07;;;;;;;;;;;6.90;57.40;;;;;;5037276;28;20294;-84
2022/03/04 11:54:34;;;;;;;;;;;7.00;57.50;;;;;;5042717;28;19943;-85
2022/03/04 11:57:13;;;;;;;;;;;7.00;56.30;;;;;;5023752;28;19913;-85
2022/03/04 11:59:39;;;;;;;;;;;7.00;55.10;;;;;;5034709;28;19956;-87
2022/03/04 12:02:04;;;;;;;;;;;7.10;56.40;;;;;;5053527;28;20352;-84
2022/03/04 12:04:34;;;;;;;;;;;7.20;54.80;;;;;;5051390;28;19984;-86
2022/03/04 12:07:07;;;;;;;;;;;7.20;53.00;;;;;;5030696;28;20029;-84
2022/03/04 12:09:32;;;;;;;;;;;7.10;52.50;;;;;;5028565;28;19913;-83
2022/03/04 12:12:11;;;;;;;;;;;7.20;53.40;;;;;;5048854;28;19928;-81
2022/03/04 12:14:41;;;;;;;;;;;7.10;53.80;;;;;;5032940;28;20084;-82
2022/03/04 12:17:07;;;;;;;;;;;7.10;54.70;;;;;;5020743;28;19952;-83
2022/03/04 12:19:33;;;;;;;;;;;7.30;53.50;;;;;;5070867;23;20335;-79
2022/03/04 12:21:59;;;;;;;;;;;7.40;52.50;;;;;;5072774;28;20439;-80
2022/03/04 12:24:29;;;;;;;;;;;7.40;52.80;;;;;;5081220;28;19928;-79
2022/03/04 12:26:54;;;;;;;;;;;7.40;52.10;;;;;;5084038;28;20137;-79
2022/03/04 12:29:21;;;;;;;;;;;7.50;54.60;;;;;;5041650;28;19912;-79
2022/03/04 12:31:48;;;;;;;;;;;7.50;53.20;;;;;;5060352;28;19909;-80
2022/03/04 12:34:21;;;;;;;;;;;7.60;53.50;;;;;;5063740;28;19913;-79
2022/03/04 12:36:46;;;;;;;;;;;7.60;53.30;;;;;;5048030;28;19909;-80
2022/03/04 12:39:15;;;;;;;;;;;7.60;54.30;;;;;;5069818;28;19935;-80
2022/03/04 12:41:41;;;;;;;;;;;7.60;50.90;;;;;;5052350;28;19923;-80
2022/03/04 12:44:07;;;;;;;;;;;7.70;50.80;;;;;;5045525;28;19976;-79
2022/03/04 12:46:37;;;;;;;;;;;7.90;51.50;;;;;;5063192;28;19966;-78
2022/03/04 12:49:03;;;;;;;;;;;7.90;53.30;;;;;;5056616;28;19909;-78
2022/03/04 12:51:31;;;;;;;;;;;7.90;51.50;;;;;;5056590;28;20387;-78
2022/03/04 12:54:00;;;;;;;;;;;7.80;53.80;;;;;;5056872;28;20373;-79
2022/03/04 12:56:26;;;;;;;;;;;7.80;53.30;;;;;;5033383;28;19921;-79
2022/03/04 12:58:54;;;;;;;;;;;7.80;51.80;;;;;;5047232;28;20300;-79
2022/03/04 13:01:21;;;;;;;;;;;7.80;51.60;;;;;;5057847;28;19913;-79
2022/03/04 13:03:48;;;;;;;;;;;7.80;51.50;;;;;;5047093;28;19921;-80
2022/03/04 13:06:13;;;;;;;;;;;8.00;51.70;;;;;;5052601;28;19943;-82
2022/03/04 13:08:46;;;;;;;;;;;8.00;48.70;;;;;;5043301;28;19946;-80
2022/03/04 13:11:18;;;;;;;;;;;8.10;47.10;;;;;;5079892;28;19912;-81
2022/03/04 13:14:04;;;;;;;;;;;7.90;50.60;;;;;;5072408;28;19913;-80
2022/03/04 13:16:39;;;;;;;;;;;7.90;49.20;;;;;;5059187;28;20368;-80
2022/03/04 13:19:05;;;;;;;;;;;7.90;48.70;;;;;;5065982;28;19922;-82
2022/03/04 13:21:41;;;;;;;;;;;8.00;47.90;;;;;;5066858;28;19923;-82
2022/03/04 13:24:08;;;;;;;;;;;8.00;47.10;;;;;;5069035;28;19921;-81
2022/03/04 13:26:34;;;;;;;;;;;8.00;50.20;;;;;;5070011;28;20011;-82
2022/03/04 13:29:00;;;;;;;;;;;8.10;48.70;;;;;;5074942;28;20033;-81
2022/03/04 13:31:27;;;;;;;;;;;8.10;47.20;;;;;;5060227;28;19912;-81
2022/03/04 13:34:06;;;;;;;;;;;8.10;50.50;;;;;;5056275;28;19956;-81
2022/03/04 13:36:48;;;;;;;;;;;8.10;49.60;;;;;;5065358;28;19952;-81
2022/03/04 13:39:19;;;;;;;;;;;8.10;48.80;;;;;;5081292;28;19917;-84
2022/03/04 13:41:44;;;;;;;;;;;8.10;51.90;;;;;;5064599;28;20085;-81
2022/03/04 13:44:11;;;;;;;;;;;8.20;50.70;;;;;;5056349;28;19916;-81
2022/03/04 13:46:37;;;;;;;;;;;8.10;49.60;;;;;;5041690;28;19912;-80
2022/03/04 13:49:05;;;;;;;;;;;8.00;50.60;;;;;;5067216;28;19946;-79
2022/03/04 13:51:31;;;;;;;;;;;8.00;50.10;;;;;;5080280;28;19995;-80
2022/03/04 13:53:58;;;;;;;;;;;8.00;49.40;;;;;;5077346;28;19912;-80
2022/03/04 13:56:24;;;;;;;;;;;8.00;48.70;;;;;;5040268;28;19912;-80
2022/03/04 13:58:57;;;;;;;;;;;8.00;49.40;;;;;;5046771;28;19920;-79
2022/03/04 14:01:23;;;;;;;;;;;7.90;48.90;;;;;;5077655;28;19920;-80
2022/03/04 14:03:49;;;;;;;;;;;7.90;48.10;;;;;;5067093;28;19917;-80
2022/03/04 14:06:15;;;;;;;;;;;8.00;49.50;;;;;;5030771;28;19912;-79
2022/03/04 14:08:41;;;;;;;;;;;8.00;49.80;;;;;;5071275;28;19912;-79
2022/03/04 14:11:08;;;;;;;;;;;8.00;50.20;;;;;;5038984;28;19915;-80
2022/03/04 14:13:34;;;;;;;;;;;8.00;50.80;;;;;;5034837;28;19913;-80
2022/03/04 14:16:00;;;;;;;;;;;7.90;50.90;;;;;;5043246;28;19913;-80
2022/03/04 14:18:26;;;;;;;;;;;8.00;51.10;;;;;;5063541;28;19923;-81
2022/03/04 14:20:52;;;;;;;;;;;7.90;50.80;;;;;;5046585;28;19909;-80
2022/03/04 14:23:18;;;;;;;;;;;7.90;50.50;;;;;;5073243;28;19958;-80
2022/03/04 14:25:44;;;;;;;;;;;7.90;50.00;;;;;;5062701;28;19909;-79
2022/03/04 14:28:10;;;;;;;;;;;7.90;50.20;;;;;;5043122;28;20602;-78
2022/03/04 14:30:38;;;;;;;;;;;7.90;48.20;;;;;;5077304;28;19913;-80
2022/03/04 14:33:04;;;;;;;;;;;7.80;49.30;;;;;;5060943;28;19975;-80